Rio Grande City, TX

12:11 PM CDT en Agosto 03, 2015 (GMT -0500)
APRSWXNET | | Change Station
CLOSE
Current Station
Estación meteorológica personal
Location: La Joya, TX
Altura: 154 ft
Estaciones meteorológicas cercanas

Alt 154 ft 26.25 °N, 98.49 °W | Updated 22 minutes ago

Despejado
Despejado
94 ° F
Sensación térmica 104 ° F
N
0
Viento Variable Viento desde ESE
Gusts 0.0 mph

Hoy
Alta -- | Baja -- ° F
--% Posibilidad de precipitaciones
Ayer
Alta -- | Baja -- ° F
Precip. -- pul
7:01 AM 8:21 PM
Gibosa menguante, 85% visible
Presión 29.88 pul
Visibilidad 8.0 Millas
Nubes Despejado
Índice de calor 104 ° F
Punto de rocío 74 ° F
Humedad 52%
Precipitaciones pul
Espesor de la nieve No disponible.
UV 10 de una escala de 12
Polen 7.70 de una escala de 12
Calidad del aire No disponible.
Flu Activity No disponible.
METAR KMFE 031653Z 17010G14KT 8SM CLR 36/21 A2989 RMK AO2 SLP119 T03560206

More Conditions Fewer Conditions

Presión 29.88 pul
Visibilidad 8.0 Millas
Nubes Despejado
Índice de calor 104 ° F
Punto de rocío 74 ° F
Humedad 52%
Precipitaciones pul
Espesor de la nieve No disponible.
UV 10 de una escala de 12
Polen 7.70 de una escala de 12
Calidad del aire No disponible.
Flu Activity No disponible.
METAR KMFE 031653Z 17010G14KT 8SM CLR 36/21 A2989 RMK AO2 SLP119 T03560206

More Conditions Fewer Conditions

10-Day Weather Forecast

×

Almanac

Astronomía

Aug. 03, 2015 Salida Puesta
Hora real
Crepúsculo civil
Crepúsculo náutico
Crepúsculo astronómico
Luna
Horas de luz
Horas de luz
Tomorrow will be .
, % of the Moon is Illuminated

Extremos de hoy

Máximos del estado Bajos del estado

Community

WunderPhotos

Upload Photos

1,843,679 ¡fotos cargadas!

WunderBlogs® & News

Nearby

Calidad del aire

  Calidad del aire Índice AQ Contaminante
Not available.

Grosos de nieve

Estación Profundido Altura

Actividad de terremotos

Ciudad Distance Mag. Tiempo y dato
Magnitud mínima muestra es 2,5.

Temperaturas de aguas costeras

Lugar Temperatura

Stations

Estaciones meteorológicas cercanas

Ubicación de la estación Temp. Vientos helados Punto de rocío Humedad Viento Precip. Alt Actualizado Tipo